Time;durP1;ratioP1;P1;durP2;ratioP2;P2;SDS_P1;SDS_P2;PMS_P1;PMS_P2;Temp;Humidity;BMP_temperature;BMP_pressure;BME280_temperature;BME280_humidity;BME280_pressure;Samples;Min_cycle;Max_cycle;Signal;HPM_P1;HPM_P2
2021/04/06 00:00:05;;;;;;;13.43;2.50;;;3.00;96.10;;;;;;5064753;28;20471;-39
2021/04/06 00:02:35;;;;;;;12.77;2.25;;;3.10;96.10;;;;;;5059210;28;20021;-36
2021/04/06 00:05:04;;;;;;;12.40;2.38;;;3.20;96.20;;;;;;5065127;28;20131;-36
2021/04/06 00:07:31;;;;;;;15.10;4.00;;;3.20;96.20;;;;;;5064849;28;20151;-39
2021/04/06 00:10:05;;;;;;;13.20;2.63;;;3.20;96.30;;;;;;5065178;28;20385;-38
2021/04/06 00:12:31;;;;;;;13.40;2.60;;;3.20;96.40;;;;;;5064805;28;20036;-37
2021/04/06 00:14:58;;;;;;;13.45;2.17;;;3.20;96.50;;;;;;5064947;28;20028;-38
2021/04/06 00:17:28;;;;;;;17.38;2.85;;;3.20;96.60;;;;;;5064780;28;20060;-33
2021/04/06 00:19:56;;;;;;;8.10;2.17;;;3.10;96.60;;;;;;5064284;28;20180;-35
2021/04/06 00:22:26;;;;;;;12.77;2.90;;;3.20;96.60;;;;;;5065245;28;20062;-41
2021/04/06 00:24:53;;;;;;;10.35;2.05;;;3.20;96.60;;;;;;5063847;28;20029;-39
2021/04/06 00:27:27;;;;;;;10.77;2.22;;;3.10;96.60;;;;;;5064487;28;20107;-37
2021/04/06 00:29:57;;;;;;;9.40;2.15;;;3.10;96.60;;;;;;5064745;28;20028;-37
2021/04/06 00:32:25;;;;;;;14.93;2.83;;;3.10;96.90;;;;;;5063882;28;20020;-39
2021/04/06 00:34:59;;;;;;;7.72;1.85;;;3.10;96.80;;;;;;5051761;28;20557;-38
2021/04/06 00:37:25;;;;;;;7.32;1.65;;;3.10;96.70;;;;;;5064777;28;20057;-37
2021/04/06 00:40:09;;;;;;;8.77;2.15;;;3.00;96.80;;;;;;5064632;28;20036;-39
2021/04/06 00:42:36;;;;;;;7.72;1.55;;;3.00;96.80;;;;;;5044319;28;20021;-38
2021/04/06 00:45:12;;;;;;;8.68;1.85;;;3.00;96.90;;;;;;5060178;28;20055;-38
2021/04/06 00:47:39;;;;;;;13.43;2.30;;;3.00;96.90;;;;;;5052892;28;20043;-38
2021/04/06 00:50:15;;;;;;;9.32;2.08;;;3.10;96.90;;;;;;5059880;28;20021;-39
2021/04/06 00:52:45;;;;;;;8.02;1.60;;;3.10;96.90;;;;;;5057491;28;20036;-37
2021/04/06 00:55:15;;;;;;;13.57;2.40;;;3.10;96.80;;;;;;5063941;28;20025;-37
2021/04/06 00:57:46;;;;;;;16.13;3.45;;;3.10;96.80;;;;;;5064303;28;20040;-39
2021/04/06 01:00:28;;;;;;;15.98;2.63;;;3.20;96.80;;;;;;5064145;28;20031;-36
2021/04/06 01:03:05;;;;;;;16.60;2.40;;;3.20;96.80;;;;;;5064371;28;20048;-37
2021/04/06 01:05:33;;;;;;;15.23;2.95;;;3.20;96.90;;;;;;5063611;28;20345;-37
2021/04/06 01:08:02;;;;;;;11.73;2.80;;;3.10;97.10;;;;;;5064307;28;20429;-34
2021/04/06 01:10:29;;;;;;;16.92;3.63;;;3.10;97.00;;;;;;5063589;28;20071;-31
2021/04/06 01:12:55;;;;;;;10.18;2.30;;;3.00;97.10;;;;;;5063215;28;20410;-37
2021/04/06 01:15:25;;;;;;;16.95;2.78;;;3.00;97.20;;;;;;5063891;28;20036;-37
2021/04/06 01:17:51;;;;;;;12.52;2.45;;;2.90;97.10;;;;;;5063534;28;20021;-37
2021/04/06 01:20:18;;;;;;;10.77;2.78;;;2.80;97.40;;;;;;5064286;28;20039;-36
2021/04/06 01:22:46;;;;;;;12.23;2.78;;;2.80;97.20;;;;;;5063828;28;20069;-34
2021/04/06 01:25:20;;;;;;;12.95;2.97;;;2.70;97.40;;;;;;5063829;28;20029;-37
2021/04/06 01:27:46;;;;;;;11.75;2.60;;;2.60;97.50;;;;;;5064277;28;20028;-35
2021/04/06 01:30:12;;;;;;;11.35;2.65;;;2.60;97.50;;;;;;5063536;28;20024;-38
2021/04/06 01:32:39;;;;;;;10.93;2.50;;;2.60;97.70;;;;;;5064146;28;20547;-38
2021/04/06 01:35:09;;;;;;;12.07;2.80;;;2.60;97.70;;;;;;5063925;28;20029;-38
2021/04/06 01:37:35;;;;;;;13.00;2.63;;;2.60;97.60;;;;;;5061490;28;20012;-39
2021/04/06 01:40:03;;;;;;;9.60;2.25;;;2.50;97.70;;;;;;5064613;28;20039;-38
2021/04/06 01:42:32;;;;;;;16.55;2.95;;;2.60;97.70;;;;;;5063742;28;20017;-39
2021/04/06 01:45:00;;;;;;;16.27;2.67;;;2.50;97.60;;;;;;5063098;28;20045;-37
2021/04/06 01:47:27;;;;;;;10.80;3.47;;;2.50;97.80;;;;;;5067403;28;20511;-39
2021/04/06 01:49:53;;;;;;;17.42;2.95;;;2.60;97.80;;;;;;5067458;28;20028;-38
2021/04/06 01:52:20;;;;;;;17.58;2.63;;;2.60;97.80;;;;;;5067485;28;20373;-39
2021/04/06 01:54:51;;;;;;;8.88;2.55;;;2.70;97.70;;;;;;5067905;28;20025;-39
2021/04/06 01:57:24;;;;;;;18.92;3.60;;;2.70;97.60;;;;;;5067458;28;20040;-39
2021/04/06 01:59:58;;;;;;;;;;;2.80;97.60;;;;;;5067596;28;20117;-39
2021/04/06 02:02:29;;;;;;;18.00;3.25;;;2.80;97.40;;;;;;5064870;28;20035;-38
2021/04/06 02:04:56;;;;;;;19.73;4.55;;;2.80;97.30;;;;;;5063179;28;20568;-37
2021/04/06 02:07:26;;;;;;;17.08;3.85;;;2.80;97.30;;;;;;5060448;28;20106;-39
2021/04/06 02:09:52;;;;;;;17.40;3.65;;;2.70;97.20;;;;;;5066936;28;20089;-38
2021/04/06 02:12:22;;;;;;;14.85;3.28;;;2.70;97.10;;;;;;5067191;28;20028;-37
2021/04/06 02:14:52;;;;;;;16.63;3.20;;;2.70;97.10;;;;;;5066640;28;20437;-37
2021/04/06 02:17:17;;;;;;;13.63;3.22;;;2.60;97.10;;;;;;5067404;28;20028;-37
2021/04/06 02:19:43;;;;;;;18.27;3.67;;;2.60;97.10;;;;;;5066507;28;20035;-36
2021/04/06 02:22:14;;;;;;;12.88;3.00;;;2.60;97.20;;;;;;5066344;28;20682;-35
2021/04/06 02:24:52;;;;;;;12.05;3.47;;;2.50;97.20;;;;;;5067252;28;20033;-36
2021/04/06 02:27:33;;;;;;;8.65;2.55;;;2.50;97.20;;;;;;5066742;28;20387;-37
2021/04/06 02:30:01;;;;;;;15.88;3.13;;;2.40;97.20;;;;;;5066306;28;20032;-39
2021/04/06 02:32:31;;;;;;;16.42;3.15;;;2.40;97.30;;;;;;5066876;28;20013;-39
2021/04/06 02:35:02;;;;;;;11.43;2.42;;;2.40;97.30;;;;;;5066164;28;20464;-37
2021/04/06 02:37:30;;;;;;;15.43;2.92;;;2.40;97.30;;;;;;5066340;28;20104;-39
2021/04/06 02:39:58;;;;;;;15.35;3.05;;;2.30;97.40;;;;;;5056005;28;20050;-39
2021/04/06 02:42:41;;;;;;;24.80;3.50;;;2.30;97.30;;;;;;5065847;28;20039;-38
2021/04/06 02:45:13;;;;;;;15.48;2.95;;;2.30;97.20;;;;;;5055878;28;20051;-38
2021/04/06 02:48:05;;;;;;;12.10;2.83;;;2.30;97.10;;;;;;5066206;28;20112;-37
2021/04/06 02:50:31;;;;;;;18.45;3.28;;;2.30;96.80;;;;;;5057619;28;20040;-38
2021/04/06 02:52:57;;;;;;;13.48;2.67;;;2.30;96.70;;;;;;5066085;28;20028;-39
2021/04/06 02:55:24;;;;;;;14.45;2.88;;;2.40;96.30;;;;;;5065539;28;20021;-43
2021/04/06 02:57:52;;;;;;;12.68;2.65;;;2.40;96.30;;;;;;5065079;28;20483;-36
2021/04/06 03:00:27;;;;;;;9.85;2.80;;;2.50;96.30;;;;;;5066478;28;20039;-37
2021/04/06 03:03:02;;;;;;;13.02;2.72;;;2.50;96.10;;;;;;5065797;28;20025;-37
2021/04/06 03:05:33;;;;;;;16.30;3.00;;;2.50;96.00;;;;;;5064001;28;20029;-39
2021/04/06 03:08:00;;;;;;;13.15;2.67;;;2.50;95.70;;;;;;5065902;28;20024;-33
2021/04/06 03:10:29;;;;;;;15.85;2.47;;;2.50;95.50;;;;;;5065686;28;20047;-39
2021/04/06 03:12:55;;;;;;;11.75;2.25;;;2.50;95.60;;;;;;5066301;28;20028;-37
2021/04/06 03:15:26;;;;;;;7.50;2.08;;;2.50;95.40;;;;;;5065731;28;20036;-38
2021/04/06 03:17:56;;;;;;;15.10;2.30;;;2.60;95.50;;;;;;5066397;28;20025;-35
2021/04/06 03:20:23;;;;;;;12.30;2.40;;;2.60;95.50;;;;;;5065660;28;20044;-38
2021/04/06 03:22:51;;;;;;;8.57;2.25;;;2.60;96.00;;;;;;5065185;28;20128;-36
2021/04/06 03:25:17;;;;;;;9.02;2.55;;;2.50;96.50;;;;;;5066067;28;20039;-37
2021/04/06 03:27:44;;;;;;;9.27;2.53;;;2.40;97.10;;;;;;5066092;28;20024;-37
2021/04/06 03:30:10;;;;;;;7.28;1.80;;;2.30;97.60;;;;;;5065397;28;20147;-35
2021/04/06 03:32:37;;;;;;;9.63;1.77;;;2.20;97.40;;;;;;5065848;28;20028;-39
2021/04/06 03:35:04;;;;;;;9.60;2.10;;;2.10;97.30;;;;;;5065422;28;20024;-37
2021/04/06 03:37:29;;;;;;;11.43;2.42;;;2.00;97.40;;;;;;5065318;28;20025;-39
2021/04/06 03:39:55;;;;;;;5.40;1.33;;;2.00;97.30;;;;;;5065489;28;20719;-39
2021/04/06 03:42:26;;;;;;;11.18;1.70;;;1.90;97.60;;;;;;5066358;28;20828;-38
2021/04/06 03:45:04;;;;;;;5.85;1.33;;;1.80;97.40;;;;;;5064684;28;20047;-36
2021/04/06 03:47:53;;;;;;;3.75;1.02;;;1.80;97.40;;;;;;5065124;28;20035;-39
2021/04/06 03:50:31;;;;;;;7.72;1.90;;;1.70;97.50;;;;;;5065489;28;20035;-38
2021/04/06 03:53:08;;;;;;;5.72;1.70;;;1.70;97.70;;;;;;5063723;28;20082;-39
2021/04/06 03:55:34;;;;;;;8.50;2.35;;;1.70;97.90;;;;;;5059006;28;20077;-38
2021/04/06 03:58:17;;;;;;;7.53;1.65;;;1.70;97.90;;;;;;5060380;28;20372;-37
2021/04/06 04:00:43;;;;;;;;;;;1.80;97.90;;;;;;5056211;28;20354;-34
2021/04/06 04:03:11;;;;;;;6.72;2.03;;;1.80;98.00;;;;;;5057084;28;19912;-39
2021/04/06 04:05:37;;;;;;;8.48;2.17;;;1.80;98.00;;;;;;5055000;28;20056;-38
2021/04/06 04:08:05;;;;;;;7.00;2.28;;;1.90;98.10;;;;;;5062024;28;20055;-39
2021/04/06 04:10:30;;;;;;;10.25;2.00;;;1.90;98.00;;;;;;5059967;28;20052;-36
2021/04/06 04:12:56;;;;;;;7.63;1.48;;;1.90;98.00;;;;;;5064167;28;20042;-38
2021/04/06 04:15:21;;;;;;;7.68;1.75;;;1.80;97.90;;;;;;5064569;28;20086;-38
2021/04/06 04:17:51;;;;;;;10.18;1.83;;;1.80;98.30;;;;;;5064221;28;20028;-39
2021/04/06 04:20:21;;;;;;;11.15;2.38;;;1.90;98.40;;;;;;5063724;28;20016;-36
2021/04/06 04:22:48;;;;;;;9.52;1.48;;;1.90;98.50;;;;;;5062929;28;20145;-35
2021/04/06 04:25:15;;;;;;;8.30;2.10;;;1.90;98.40;;;;;;5056865;28;20543;-37
2021/04/06 04:27:41;;;;;;;6.68;1.73;;;1.90;98.40;;;;;;5062460;28;20051;-38
2021/04/06 04:30:08;;;;;;;8.73;1.88;;;1.90;98.30;;;;;;5063560;28;20028;-40
2021/04/06 04:32:34;;;;;;;6.45;1.50;;;1.90;98.20;;;;;;5058424;28;20472;-38
2021/04/06 04:34:59;;;;;;;8.30;2.03;;;1.80;98.20;;;;;;5063723;28;20037;-36
2021/04/06 04:37:25;;;;;;;8.15;2.47;;;1.80;98.40;;;;;;5064345;28;20081;-37
2021/04/06 04:39:51;;;;;;;7.80;2.08;;;1.80;98.40;;;;;;5061882;28;20554;-37
2021/04/06 04:42:17;;;;;;;6.53;1.27;;;1.70;98.50;;;;;;5060117;28;20445;-36
2021/04/06 04:44:42;;;;;;;6.63;1.50;;;1.70;98.50;;;;;;5064722;28;20109;-39
2021/04/06 04:47:08;;;;;;;10.80;1.80;;;1.70;98.70;;;;;;5063540;28;20017;-34
2021/04/06 04:49:33;;;;;;;8.93;2.95;;;1.70;98.70;;;;;;5064219;28;20034;-37
2021/04/06 04:51:59;;;;;;;8.15;1.95;;;1.70;98.60;;;;;;5064376;28;20031;-36
2021/04/06 04:54:25;;;;;;;13.38;2.10;;;1.80;98.80;;;;;;5048826;28;20047;-38
2021/04/06 04:56:50;;;;;;;7.10;2.47;;;1.80;98.50;;;;;;5048570;28;20174;-37
2021/04/06 04:59:16;;;;;;;13.55;2.28;;;1.90;98.50;;;;;;5063872;28;20043;-36
2021/04/06 05:01:41;;;;;;;9.45;2.05;;;1.90;98.50;;;;;;5059752;28;20028;-39
2021/04/06 05:04:10;;;;;;;10.65;3.10;;;2.00;98.40;;;;;;5063831;28;20043;-37
2021/04/06 05:06:35;;;;;;;12.07;2.30;;;1.90;98.40;;;;;;5064185;28;20077;-39
2021/04/06 05:09:01;;;;;;;8.40;2.72;;;1.90;98.40;;;;;;5063691;28;20547;-38
2021/04/06 05:11:28;;;;;;;5.22;1.73;;;1.90;98.40;;;;;;5064013;28;20400;-38
2021/04/06 05:13:53;;;;;;;5.20;1.83;;;1.80;98.30;;;;;;5064019;28;20021;-38
2021/04/06 05:16:19;;;;;;;5.70;1.50;;;1.70;98.30;;;;;;5064200;28;20635;-37
2021/04/06 05:18:45;;;;;;;6.53;1.70;;;1.70;98.30;;;;;;5063849;28;20071;-39
2021/04/06 05:21:10;;;;;;;5.15;1.65;;;1.60;98.30;;;;;;5067752;28;20526;-38
2021/04/06 05:23:36;;;;;;;5.65;1.40;;;1.60;98.30;;;;;;5069736;28;20559;-38
2021/04/06 05:26:02;;;;;;;6.63;1.45;;;1.60;98.40;;;;;;5070813;28;20035;-39
2021/04/06 05:28:28;;;;;;;7.68;1.83;;;1.60;98.40;;;;;;5070625;28;20020;-38
2021/04/06 05:30:54;;;;;;;9.43;1.98;;;1.50;98.50;;;;;;5070385;28;20020;-38
2021/04/06 05:33:21;;;;;;;7.28;1.80;;;1.50;98.60;;;;;;5070950;28;20629;-38
2021/04/06 05:35:50;;;;;;;7.32;1.65;;;1.50;98.50;;;;;;5070704;28;20047;-38
2021/04/06 05:38:15;;;;;;;5.13;1.38;;;1.40;98.50;;;;;;5070347;28;20611;-35
2021/04/06 05:40:41;;;;;;;9.48;2.17;;;1.50;98.60;;;;;;5070894;28;20131;-37
2021/04/06 05:43:07;;;;;;;6.50;2.10;;;1.50;98.60;;;;;;5071101;28;20448;-34
2021/04/06 05:45:34;;;;;;;9.57;2.05;;;1.40;98.60;;;;;;5068806;28;20016;-35
2021/04/06 05:48:03;;;;;;;6.65;1.70;;;1.40;98.50;;;;;;5057625;28;20184;-37
2021/04/06 05:50:29;;;;;;;6.47;1.40;;;1.40;98.60;;;;;;5068233;28;20048;-36
2021/04/06 05:52:55;;;;;;;6.75;1.60;;;1.40;98.60;;;;;;5077807;28;20017;-36
2021/04/06 05:55:21;;;;;;;9.32;2.03;;;1.40;98.50;;;;;;5071721;28;20040;-36
2021/04/06 05:57:47;;;;;;;6.90;2.03;;;1.40;98.60;;;;;;5068543;28;20024;-40
2021/04/06 06:00:13;;;;;;;7.85;2.33;;;1.40;98.70;;;;;;5069782;28;20077;-39
2021/04/06 06:02:39;;;;;;;11.40;2.63;;;1.40;98.70;;;;;;5069602;28;20127;-36
2021/04/06 06:05:06;;;;;;;8.45;1.83;;;1.50;98.70;;;;;;5063143;28;20680;-35
2021/04/06 06:07:33;;;;;;;7.60;3.05;;;1.60;98.70;;;;;;5062790;28;20027;-38
2021/04/06 06:10:30;;;;;;;9.55;1.92;;;1.70;98.70;;;;;;5061878;28;20032;-40
2021/04/06 06:13:13;;;;;;;9.80;3.20;;;1.90;98.60;;;;;;5069824;28;20029;-39
2021/04/06 06:15:39;;;;;;;7.72;2.20;;;2.10;98.30;;;;;;5070153;28;20472;-36
2021/04/06 06:18:05;;;;;;;9.35;2.33;;;2.10;98.10;;;;;;5070209;28;20081;-36
2021/04/06 06:20:32;;;;;;;9.77;2.75;;;2.20;98.00;;;;;;5070098;28;20024;-39
2021/04/06 06:23:18;;;;;;;7.70;1.50;;;2.10;97.90;;;;;;5074811;28;20220;-39
2021/04/06 06:26:06;;;;;;;7.78;1.70;;;2.10;98.00;;;;;;5069771;28;20062;-38
2021/04/06 06:28:35;;;;;;;9.65;2.03;;;2.20;98.30;;;;;;5067215;28;20038;-40
2021/04/06 06:31:00;;;;;;;8.27;2.03;;;2.30;97.90;;;;;;5068768;28;20097;-36
2021/04/06 06:33:28;;;;;;;9.80;1.85;;;2.40;97.80;;;;;;5066479;28;20069;-36
2021/04/06 06:36:00;;;;;;;8.32;1.85;;;2.50;97.60;;;;;;5066728;28;20141;-37
2021/04/06 06:38:40;;;;;;;14.25;2.17;;;2.60;97.60;;;;;;5067340;28;20089;-37
2021/04/06 06:41:21;;;;;;;11.43;1.85;;;2.70;97.40;;;;;;5066821;28;20028;-39
2021/04/06 06:43:56;;;;;;;9.35;2.13;;;2.70;97.30;;;;;;5066442;28;20048;-38
2021/04/06 06:46:35;;;;;;;9.70;2.10;;;2.70;96.80;;;;;;5063301;28;20024;-35
2021/04/06 06:49:06;;;;;;;11.75;2.22;;;2.70;96.70;;;;;;5063281;28;20103;-35
2021/04/06 06:51:40;;;;;;;9.02;2.33;;;2.60;96.70;;;;;;5066488;28;20081;-38
2021/04/06 06:54:06;;;;;;;9.20;2.15;;;2.60;96.90;;;;;;5066200;28;20429;-36
2021/04/06 06:56:36;;;;;;;8.52;1.85;;;2.60;96.80;;;;;;5066719;28;20066;-37
2021/04/06 06:59:03;;;;;;;9.45;1.95;;;2.70;96.70;;;;;;5066690;28;20740;-38
2021/04/06 07:01:34;;;;;;;8.32;2.00;;;2.80;96.50;;;;;;5065641;28;20125;-38
2021/04/06 07:04:13;;;;;;;6.25;1.55;;;2.80;96.60;;;;;;5056802;28;20810;-34
2021/04/06 07:06:46;;;;;;;7.93;1.95;;;3.00;96.70;;;;;;5058510;28;20028;-37
2021/04/06 07:09:28;;;;;;;4.47;1.60;;;3.00;96.30;;;;;;5066220;28;20475;-35
2021/04/06 07:12:01;;;;;;;11.77;2.67;;;3.20;96.40;;;;;;5066142;28;20539;-38
2021/04/06 07:14:28;;;;;;;9.10;1.60;;;3.30;96.10;;;;;;5066774;28;20047;-36
2021/04/06 07:16:54;;;;;;;8.95;3.38;;;3.20;96.00;;;;;;5059961;28;20067;-40
2021/04/06 07:19:21;;;;;;;4.43;1.67;;;3.20;96.10;;;;;;5061913;28;20111;-38
2021/04/06 07:21:48;;;;;;;7.38;1.75;;;3.10;96.10;;;;;;5065688;28;20020;-38
2021/04/06 07:24:20;;;;;;;7.10;1.90;;;3.10;96.20;;;;;;5066374;28;20047;-38
2021/04/06 07:26:47;;;;;;;8.32;2.15;;;3.10;96.40;;;;;;5066345;28;20043;-38
2021/04/06 07:29:13;;;;;;;9.30;2.10;;;3.20;96.10;;;;;;5066121;28;20111;-35
2021/04/06 07:31:39;;;;;;;7.50;2.17;;;3.20;96.10;;;;;;5067706;28;20021;-38
2021/04/06 07:34:08;;;;;;;5.82;2.50;;;3.10;95.90;;;;;;5066323;28;20134;-37
2021/04/06 07:36:34;;;;;;;8.32;2.50;;;3.10;96.00;;;;;;5065062;28;20361;-38
2021/04/06 07:39:05;;;;;;;5.40;2.50;;;3.20;96.20;;;;;;5066043;28;20544;-35
2021/04/06 07:41:34;;;;;;;5.75;2.00;;;3.30;96.10;;;;;;5065903;28;20047;-41
2021/04/06 07:44:03;;;;;;;8.02;1.88;;;3.40;96.10;;;;;;5064927;28;20048;-38
2021/04/06 07:46:34;;;;;;;8.88;2.70;;;3.70;96.20;;;;;;5046090;28;20448;-38
2021/04/06 07:49:11;;;;;;;8.35;2.03;;;3.90;95.90;;;;;;5062016;28;20620;-37
2021/04/06 07:51:54;;;;;;;10.82;2.50;;;4.10;95.50;;;;;;5060674;28;20033;-35
2021/04/06 07:54:39;;;;;;;6.38;1.52;;;4.20;94.40;;;;;;5062483;28;20047;-39
2021/04/06 07:57:06;;;;;;;5.53;1.60;;;4.20;94.20;;;;;;5045605;28;20037;-36
2021/04/06 07:59:34;;;;;;;5.95;1.25;;;4.10;94.30;;;;;;5062026;28;20217;-38
2021/04/06 08:02:03;;;;;;;8.30;2.00;;;4.10;94.60;;;;;;5045660;28;20025;-34
2021/04/06 08:04:37;;;;;;;6.53;1.50;;;4.00;94.50;;;;;;5054228;28;20119;-39
2021/04/06 08:07:24;;;;;;;6.07;1.45;;;3.90;94.70;;;;;;5055992;28;20060;-38
2021/04/06 08:09:51;;;;;;;6.72;2.60;;;3.90;94.70;;;;;;5060899;28;20470;-39
2021/04/06 08:12:19;;;;;;;11.57;1.63;;;3.80;94.90;;;;;;5060919;28;20039;-38
2021/04/06 08:15:15;;;;;;;6.47;1.90;;;3.70;95.10;;;;;;5064913;28;20028;-38
2021/04/06 08:17:54;;;;;;;4.30;1.40;;;3.60;95.30;;;;;;5059416;28;20089;-37
2021/04/06 08:20:19;;;;;;;6.43;1.40;;;3.60;94.80;;;;;;5063621;28;20147;-36
2021/04/06 08:23:03;;;;;;;6.80;1.33;;;3.60;94.40;;;;;;5064516;28;20100;-34
2021/04/06 08:25:29;;;;;;;5.18;1.42;;;3.60;94.80;;;;;;5061752;28;20028;-41
2021/04/06 08:28:21;;;;;;;5.70;1.13;;;3.90;94.80;;;;;;5063149;28;20040;-38
2021/04/06 08:30:47;;;;;;;6.55;1.52;;;4.10;94.10;;;;;;5061632;28;20043;-39
2021/04/06 08:33:12;;;;;;;4.32;1.17;;;4.40;93.50;;;;;;5063885;28;20028;-38
2021/04/06 08:35:47;;;;;;;3.78;2.00;;;4.60;93.40;;;;;;5062809;28;20464;-38
2021/04/06 08:38:22;;;;;;;4.88;1.30;;;4.60;92.70;;;;;;5049204;28;20110;-38
2021/04/06 08:41:10;;;;;;;5.32;1.40;;;4.50;92.60;;;;;;5058647;28;20052;-37
2021/04/06 08:43:38;;;;;;;6.75;1.55;;;4.40;92.60;;;;;;5073478;28;20047;-38
2021/04/06 08:46:12;;;;;;;4.57;1.35;;;4.30;93.00;;;;;;5062655;28;20028;-39
2021/04/06 08:48:53;;;;;;;3.33;1.00;;;4.20;93.40;;;;;;5063026;28;20036;-39
2021/04/06 08:51:23;;;;;;;5.78;1.27;;;4.10;93.60;;;;;;5063430;28;20036;-39
2021/04/06 08:53:51;;;;;;;3.75;1.15;;;4.20;93.40;;;;;;5055860;28;20025;-38
2021/04/06 08:56:21;;;;;;;5.55;1.33;;;4.30;92.80;;;;;;5061035;28;20135;-38
2021/04/06 08:58:46;;;;;;;6.10;1.67;;;4.50;92.90;;;;;;5057450;28;20032;-39
2021/04/06 09:01:12;;;;;;;5.18;1.50;;;4.60;92.40;;;;;;5058280;28;20110;-39
2021/04/06 09:03:38;;;;;;;5.28;1.75;;;4.70;92.00;;;;;;5058771;28;20033;-35
2021/04/06 09:06:09;;;;;;;2.55;1.05;;;4.60;91.30;;;;;;5060613;28;20039;-38
2021/04/06 09:08:53;;;;;;;2.88;1.00;;;4.50;91.60;;;;;;5049857;28;20100;-38
2021/04/06 09:11:24;;;;;;;1.95;1.20;;;4.30;92.10;;;;;;5060743;28;20056;-37
2021/04/06 09:13:55;;;;;;;5.70;1.10;;;4.20;92.50;;;;;;5062218;28;20025;-36
2021/04/06 09:16:23;;;;;;;6.72;1.15;;;4.10;92.00;;;;;;5059076;28;20034;-36
2021/04/06 09:18:57;;;;;;;3.22;0.90;;;4.00;91.40;;;;;;5050949;28;20025;-37
2021/04/06 09:21:25;;;;;;;7.28;1.10;;;3.90;91.00;;;;;;5050545;28;20090;-39
2021/04/06 09:23:53;;;;;;;3.72;0.90;;;3.90;91.60;;;;;;5054175;28;20217;-38
2021/04/06 09:26:22;;;;;;;2.20;0.90;;;4.00;91.80;;;;;;5061346;28;20129;-38
2021/04/06 09:28:58;;;;;;;6.00;1.10;;;4.00;92.00;;;;;;5060561;28;20165;-39
2021/04/06 09:31:26;;;;;;;2.58;1.05;;;4.10;92.00;;;;;;5061058;28;20016;-39
2021/04/06 09:34:12;;;;;;;3.20;1.10;;;4.30;92.10;;;;;;5060764;28;20420;-38
2021/04/06 09:36:39;;;;;;;6.35;1.50;;;4.60;91.70;;;;;;5061250;28;20045;-37
2021/04/06 09:39:07;;;;;;;4.65;1.25;;;5.00;91.50;;;;;;5063433;28;20119;-39
2021/04/06 09:41:36;;;;;;;4.32;1.23;;;5.20;91.00;;;;;;5063418;28;20063;-38
2021/04/06 09:44:08;;;;;;;4.72;1.35;;;5.30;90.80;;;;;;5063574;28;20032;-38
2021/04/06 09:46:45;;;;;;;7.00;1.60;;;5.30;90.70;;;;;;5063200;28;20069;-38
2021/04/06 09:49:13;;;;;;;3.97;1.15;;;5.00;91.30;;;;;;5064095;28;20132;-39
2021/04/06 09:51:49;;;;;;;3.38;1.17;;;4.80;92.30;;;;;;5061513;28;20468;-37
2021/04/06 09:54:26;;;;;;;2.15;0.95;;;4.50;93.00;;;;;;5063797;28;20033;-39
2021/04/06 09:56:52;;;;;;;2.53;0.90;;;4.30;92.50;;;;;;5063367;28;20048;-39
2021/04/06 09:59:18;;;;;;;2.13;0.80;;;4.20;93.00;;;;;;5063892;28;20171;-39
2021/04/06 10:01:52;;;;;;;2.50;0.77;;;4.10;93.30;;;;;;5056002;28;20029;-39
2021/04/06 10:04:37;;;;;;;4.22;0.93;;;4.10;93.50;;;;;;5055447;28;20033;-38
2021/04/06 10:07:11;;;;;;;2.55;1.02;;;4.10;92.70;;;;;;5055271;28;20140;-38
2021/04/06 10:09:40;;;;;;;5.07;1.10;;;4.00;92.60;;;;;;5062395;28;20028;-39
2021/04/06 10:12:07;;;;;;;3.28;1.00;;;4.10;92.90;;;;;;5058063;28;20056;-37
2021/04/06 10:14:33;;;;;;;6.22;1.17;;;4.20;92.90;;;;;;5065001;28;20033;-38
2021/04/06 10:17:01;;;;;;;4.60;1.10;;;4.20;92.80;;;;;;5064785;28;20311;-36
2021/04/06 10:19:29;;;;;;;4.45;1.23;;;4.40;92.80;;;;;;5065458;28;20040;-39
2021/04/06 10:21:58;;;;;;;3.05;1.13;;;4.50;92.90;;;;;;5067504;28;20059;-37
2021/04/06 10:24:26;;;;;;;3.25;1.50;;;4.80;92.30;;;;;;5058896;28;20029;-42
2021/04/06 10:27:27;;;;;;;3.70;1.10;;;5.10;91.40;;;;;;5059809;28;20495;-39
2021/04/06 10:30:00;;;;;;;3.25;1.30;;;5.40;91.30;;;;;;5051370;28;20043;-38
2021/04/06 10:32:31;;;;;;;6.43;1.48;;;5.50;89.10;;;;;;5066279;28;20073;-39
2021/04/06 10:35:08;;;;;;;3.78;1.25;;;5.50;86.60;;;;;;5066786;28;20032;-35
2021/04/06 10:37:49;;;;;;;5.63;1.52;;;5.50;84.90;;;;;;5067411;28;20318;-40
2021/04/06 10:40:30;;;;;;;5.45;1.60;;;5.50;84.00;;;;;;5059032;28;20036;-35
2021/04/06 10:43:24;;;;;;;5.95;1.40;;;5.60;83.90;;;;;;5058896;28;20153;-38
2021/04/06 10:46:02;;;;;;;6.97;1.58;;;5.70;84.30;;;;;;5061650;28;20429;-42
2021/04/06 10:48:30;;;;;;;3.88;1.48;;;5.80;85.40;;;;;;5062287;28;20468;-40
2021/04/06 10:51:00;;;;;;;3.08;1.05;;;5.60;89.20;;;;;;5060734;28;20023;-40
2021/04/06 10:53:30;;;;;;;7.20;2.25;;;5.10;90.10;;;;;;5056410;28;20021;-39
2021/04/06 10:56:02;;;;;;;6.50;1.40;;;4.60;91.50;;;;;;5058302;28;20017;-37
2021/04/06 10:58:34;;;;;;;7.82;1.83;;;4.20;92.00;;;;;;5062757;28;20048;-37
2021/04/06 11:01:12;;;;;;;7.30;1.63;;;3.90;93.80;;;;;;5063767;28;20082;-36
2021/04/06 11:03:53;;;;;;;4.82;1.13;;;3.70;94.20;;;;;;5066207;28;20060;-39
2021/04/06 11:06:48;;;;;;;3.45;1.25;;;3.50;94.20;;;;;;5065449;28;20016;-38
2021/04/06 11:09:18;;;;;;;5.03;1.10;;;3.40;94.10;;;;;;5063230;28;20552;-40
2021/04/06 11:11:45;;;;;;;3.47;1.10;;;3.30;95.00;;;;;;5059405;28;20493;-40
2021/04/06 11:14:19;;;;;;;2.60;0.82;;;3.20;94.80;;;;;;5061582;28;20032;-35
2021/04/06 11:16:46;;;;;;;3.10;0.95;;;3.20;94.90;;;;;;5058051;28;20037;-38
2021/04/06 11:19:39;;;;;;;3.33;0.98;;;3.30;95.10;;;;;;5056594;28;20028;-36
2021/04/06 11:22:14;;;;;;;4.35;1.08;;;3.50;94.70;;;;;;5060290;28;20053;-39
2021/04/06 11:24:41;;;;;;;3.35;0.93;;;3.60;94.60;;;;;;5054447;28;20605;-38
2021/04/06 11:27:09;;;;;;;5.47;1.30;;;3.80;94.40;;;;;;5060931;28;20028;-37
2021/04/06 11:29:39;;;;;;;3.97;1.10;;;4.10;92.60;;;;;;5053212;28;20420;-36
2021/04/06 11:32:08;;;;;;;5.78;1.70;;;4.30;92.20;;;;;;5055031;28;20090;-39
2021/04/06 11:34:38;;;;;;;4.78;1.13;;;4.70;91.80;;;;;;5064850;28;20447;-39
2021/04/06 11:37:04;;;;;;;4.18;1.48;;;5.10;92.00;;;;;;5064945;28;20024;-39
2021/04/06 11:39:42;;;;;;;6.57;1.77;;;5.40;90.40;;;;;;5065307;28;20427;-40
2021/04/06 11:42:10;;;;;;;1.75;0.95;;;5.50;90.40;;;;;;5065037;28;20362;-38
2021/04/06 11:44:35;;;;;;;1.88;0.70;;;5.10;90.30;;;;;;5061314;28;20033;-39
2021/04/06 11:47:01;;;;;;;1.90;0.60;;;4.50;91.40;;;;;;5063161;28;20768;-40
2021/04/06 11:49:33;;;;;;;2.42;0.52;;;4.00;92.20;;;;;;5065126;28;20051;-39
2021/04/06 11:51:59;;;;;;;1.88;0.52;;;3.70;93.10;;;;;;5064008;28;20035;-40
2021/04/06 11:54:25;;;;;;;1.52;0.70;;;3.50;93.50;;;;;;5065033;28;20025;-37
2021/04/06 11:56:51;;;;;;;2.00;0.65;;;3.30;93.00;;;;;;5064532;28;20087;-38
2021/04/06 11:59:17;;;;;;;3.45;0.63;;;3.20;93.20;;;;;;5065260;28;20024;-39
2021/04/06 12:01:44;;;;;;;1.65;0.60;;;3.10;93.00;;;;;;5064931;28;20880;-37
2021/04/06 12:04:11;;;;;;;0.68;0.60;;;3.10;93.30;;;;;;5062848;28;20419;-36
2021/04/06 12:06:37;;;;;;;2.30;0.73;;;3.10;93.60;;;;;;5058187;28;20604;-39
2021/04/06 12:09:04;;;;;;;1.10;0.57;;;3.10;93.80;;;;;;5058914;28;20071;-38
2021/04/06 12:11:30;;;;;;;3.17;0.77;;;3.10;93.90;;;;;;5057208;28;20147;-36
2021/04/06 12:13:55;;;;;;;2.28;1.23;;;3.10;94.10;;;;;;5057170;28;20540;-38
2021/04/06 12:16:21;;;;;;;2.25;0.90;;;3.20;94.30;;;;;;5057457;28;20429;-37
2021/04/06 12:18:47;;;;;;;1.30;0.80;;;3.30;94.30;;;;;;5064000;28;20066;-39
2021/04/06 12:21:14;;;;;;;2.53;0.80;;;3.40;94.40;;;;;;5060008;28;20017;-37
2021/04/06 12:23:41;;;;;;;2.70;0.75;;;3.50;94.00;;;;;;5063069;28;20082;-38
2021/04/06 12:26:07;;;;;;;2.58;1.08;;;3.60;93.90;;;;;;5060882;28;20848;-37
2021/04/06 12:28:34;;;;;;;5.88;1.45;;;3.70;93.70;;;;;;5061231;28;20016;-37
2021/04/06 12:31:00;;;;;;;6.22;1.00;;;3.90;92.60;;;;;;5055350;28;20676;-39
2021/04/06 12:33:25;;;;;;;4.82;1.35;;;4.10;93.10;;;;;;5064196;28;20073;-37
2021/04/06 12:35:51;;;;;;;4.93;1.10;;;4.30;92.70;;;;;;5056991;28;20107;-35
2021/04/06 12:38:16;;;;;;;4.97;1.40;;;4.60;92.40;;;;;;5059905;28;20027;-39
2021/04/06 12:40:42;;;;;;;7.18;1.42;;;4.80;92.50;;;;;;5063567;28;20029;-38
2021/04/06 12:43:08;;;;;;;5.78;1.50;;;5.10;91.90;;;;;;5063671;28;20021;-35
2021/04/06 12:45:33;;;;;;;6.50;1.67;;;5.30;91.00;;;;;;5062703;28;20483;-41
2021/04/06 12:47:59;;;;;;;8.50;1.40;;;5.40;88.10;;;;;;5057103;28;20062;-38
2021/04/06 12:50:26;;;;;;;3.05;1.13;;;5.60;89.50;;;;;;5067939;28;20052;-39
2021/04/06 12:52:52;;;;;;;2.00;0.88;;;5.60;90.00;;;;;;5072944;28;20379;-38
2021/04/06 12:55:17;;;;;;;3.70;1.00;;;5.40;90.00;;;;;;5063424;28;20043;-39
2021/04/06 12:57:43;;;;;;;4.05;0.80;;;4.80;90.30;;;;;;5066002;28;20379;-39
2021/04/06 13:00:10;;;;;;;2.78;0.77;;;4.30;91.50;;;;;;5064264;28;20111;-38
2021/04/06 13:02:36;;;;;;;2.00;0.60;;;4.10;92.10;;;;;;5058013;28;20029;-36
2021/04/06 13:05:03;;;;;;;2.50;0.70;;;3.90;91.60;;;;;;5064743;28;20127;-35
2021/04/06 13:07:29;;;;;;;2.15;0.70;;;3.90;92.00;;;;;;5063227;28;20021;-39
2021/04/06 13:09:55;;;;;;;2.40;0.50;;;3.90;92.00;;;;;;5061338;28;20059;-37